Time;durP1;ratioP1;P1;durP2;ratioP2;P2;SDS_P1;SDS_P2;PMS_P1;PMS_P2;Temp;Humidity;BMP_temperature;BMP_pressure;BME280_temperature;BME280_humidity;BME280_pressure;Samples;Min_cycle;Max_cycle;Signal;HPM_P1;HPM_P2
2023/10/08 00:00:43;;;;;;;8.50;2.83;;;;;;;8.30;100.00;93986.56;2104847;28;20035;-83
2023/10/08 00:01:45;;;;;;;10.20;3.17;;;;;;;8.37;100.00;93996.47;2108337;28;20082;-82
2023/10/08 00:02:46;;;;;;;6.82;2.63;;;;;;;8.31;100.00;93991.50;2114101;28;20452;-83
2023/10/08 00:03:49;;;;;;;11.25;3.55;;;;;;;8.32;100.00;93992.25;2112814;28;20039;-83
2023/10/08 00:04:54;;;;;;;7.45;2.65;;;;;;;8.45;100.00;93995.34;2105842;28;20160;-84
2023/10/08 00:05:56;;;;;;;9.32;3.15;;;;;;;8.41;100.00;93995.31;2098163;28;20062;-83
2023/10/08 00:06:58;;;;;;;6.20;2.65;;;;;;;8.40;100.00;93995.72;2097680;28;20655;-84
2023/10/08 00:07:59;;;;;;;4.55;3.05;;;;;;;8.44;100.00;93994.56;2101553;28;20025;-83
2023/10/08 00:09:00;;;;;;;5.63;2.63;;;;;;;8.42;100.00;93996.84;2105915;28;20058;-83
2023/10/08 00:10:03;;;;;;;7.45;2.63;;;;;;;8.51;100.00;93997.22;2097744;28;20070;-83
2023/10/08 00:11:10;;;;;;;6.78;3.00;;;;;;;8.40;100.00;93995.72;2114335;28;20028;-83
2023/10/08 00:12:13;;;;;;;7.63;2.97;;;;;;;8.34;100.00;93995.31;2106453;28;20020;-84
2023/10/08 00:13:17;;;;;;;6.80;2.47;;;;;;;8.41;100.00;93999.91;2106266;28;20020;-82
2023/10/08 00:14:21;;;;;;;8.18;3.22;;;;;;;8.34;100.00;93997.97;2114653;28;20024;-83
2023/10/08 00:15:25;;;;;;;5.18;2.40;;;;;;;8.34;100.00;93992.66;2105690;28;20376;-83
2023/10/08 00:16:28;;;;;;;7.55;2.85;;;;;;;8.32;100.00;93990.34;2098603;28;20024;-83
2023/10/08 00:17:31;;;;;;;7.57;2.65;;;;;;;8.23;100.00;93997.19;2107484;28;20099;-83
2023/10/08 00:18:33;;;;;;;5.25;2.63;;;;;;;8.23;100.00;93999.84;2103916;28;20055;-84
2023/10/08 00:19:36;;;;;;;9.18;3.08;;;;;;;8.29;100.00;93998.31;2097973;28;20453;-83
2023/10/08 00:20:54;;;;;;;6.63;2.58;;;;;;;8.44;100.00;93996.47;2106130;28;20523;-84
2023/10/08 00:22:04;;;;;;;8.40;2.83;;;;;;;8.50;100.00;93994.94;2105577;28;20031;-85
2023/10/08 00:23:07;;;;;;;10.80;2.95;;;;;;;8.52;100.00;93996.09;2099629;28;20141;-84
2023/10/08 00:24:09;;;;;;;12.10;2.88;;;;;;;8.49;100.00;93996.84;2114687;28;20270;-83
2023/10/08 00:25:11;;;;;;;6.53;2.75;;;;;;;8.51;100.00;93989.22;2114570;28;20038;-84
2023/10/08 00:26:12;;;;;;;6.45;2.83;;;;;;;8.54;100.00;93996.47;2114518;28;20106;-83
2023/10/08 00:27:17;;;;;;;7.68;2.50;;;;;;;8.48;100.00;93997.25;2114072;28;20023;-85
2023/10/08 00:28:18;;;;;;;6.10;2.78;;;;;;;8.48;100.00;94002.56;2113922;27;20023;-83
2023/10/08 00:29:22;;;;;;;8.38;3.20;;;;;;;8.41;100.00;93990.00;2114633;28;20027;-84
2023/10/08 00:30:23;;;;;;;9.15;3.45;;;;;;;8.46;100.00;93994.94;2113937;28;20022;-85
2023/10/08 00:31:30;;;;;;;11.00;2.97;;;;;;;8.45;100.00;93990.75;2103671;28;20480;-84
2023/10/08 00:32:31;;;;;;;8.18;2.58;;;;;;;8.48;100.00;93992.66;2114852;28;20039;-84
2023/10/08 00:33:32;;;;;;;6.60;2.85;;;;;;;8.35;100.00;93988.06;2102203;28;20456;-84
2023/10/08 00:34:33;;;;;;;7.45;2.65;;;;;;;8.26;100.00;93983.88;2106336;28;20423;-85
2023/10/08 00:35:38;;;;;;;6.88;3.05;;;;;;;8.23;100.00;93989.94;2113894;28;20114;-83
2023/10/08 00:36:44;;;;;;;10.77;3.28;;;;;;;8.29;100.00;93987.66;2105832;28;20022;-83
2023/10/08 00:37:45;;;;;;;6.78;2.70;;;;;;;8.27;100.00;93989.97;2106541;28;20028;-84
2023/10/08 00:38:54;;;;;;;7.70;2.63;;;;;;;8.26;100.00;93991.88;2113733;27;20054;-84
2023/10/08 00:39:57;;;;;;;9.43;3.40;;;;;;;8.28;100.00;93989.56;2106728;28;20120;-84
2023/10/08 00:41:00;;;;;;;5.80;2.72;;;;;;;8.35;100.00;93990.75;2106031;28;20417;-83
2023/10/08 00:42:04;;;;;;;8.90;2.70;;;;;;;8.21;100.00;93986.91;2114034;28;20117;-84
2023/10/08 00:43:10;;;;;;;7.45;2.72;;;;;;;8.22;100.00;93983.09;2110037;28;20028;-84
2023/10/08 00:44:14;;;;;;;8.52;2.70;;;;;;;8.05;100.00;93986.50;2101348;28;20028;-84
2023/10/08 00:45:16;;;;;;;9.77;2.70;;;;;;;8.01;100.00;93988.41;2101362;28;20022;-82
2023/10/08 00:46:22;;;;;;;6.88;2.70;;;;;;;7.78;100.00;93988.72;2114118;28;20055;-82
2023/10/08 00:47:26;;;;;;;5.25;2.30;;;;;;;7.93;100.00;93986.84;2097927;28;20020;-82
2023/10/08 00:48:34;;;;;;;4.43;2.45;;;;;;;7.98;100.00;93981.91;2105912;28;23245;-83
2023/10/08 00:49:48;;;;;;;8.85;2.72;;;;;;;8.10;100.00;93983.47;2110985;27;20054;-84
2023/10/08 00:50:49;;;;;;;5.60;2.78;;;;;;;8.00;100.00;93977.00;2106896;28;20469;-83
2023/10/08 00:52:03;;;;;;;6.97;2.88;;;;;;;8.04;100.00;93969.00;2114065;28;20170;-85
2023/10/08 00:53:10;;;;;;;7.15;2.85;;;;;;;8.01;100.00;93981.16;2111325;28;20096;-83
2023/10/08 00:54:17;;;;;;;8.40;3.22;;;;;;;8.00;100.00;93974.31;2110675;28;20019;-84
2023/10/08 00:55:21;;;;;;;9.93;2.72;;;;;;;7.95;100.00;93974.69;2105319;28;20098;-84
2023/10/08 00:56:25;;;;;;;5.97;2.55;;;;;;;7.97;100.00;93969.75;2106210;28;20016;-83
2023/10/08 00:57:29;;;;;;;8.57;3.40;;;;;;;8.08;100.00;93969.78;2105581;28;20059;-84
2023/10/08 00:58:33;;;;;;;8.25;3.10;;;;;;;7.99;100.00;93966.69;2097678;28;20024;-83
2023/10/08 00:59:44;;;;;;;9.35;2.75;;;;;;;8.10;100.00;93972.81;2105645;28;20083;-82
2023/10/08 01:00:47;;;;;;;6.53;2.60;;;;;;;7.98;100.00;93973.94;2113590;28;20077;-83
2023/10/08 01:01:54;;;;;;;7.15;3.13;;;;;;;8.07;100.00;93973.56;2113742;28;20031;-83
2023/10/08 01:03:00;;;;;;;7.32;2.90;;;;;;;8.10;100.00;93972.06;2095907;28;20032;-84
2023/10/08 01:04:11;;;;;;;11.02;3.03;;;;;;;7.90;100.00;93968.97;2093990;28;20134;-85
2023/10/08 01:05:18;;;;;;;5.95;2.80;;;;;;;7.89;100.00;93965.53;2094347;28;20120;-82
2023/10/08 01:06:20;;;;;;;6.80;3.42;;;;;;;7.96;100.00;93965.56;2098725;28;20066;-84
2023/10/08 01:07:21;;;;;;;8.93;2.70;;;;;;;8.05;100.00;93965.19;2105287;28;20024;-84
2023/10/08 01:08:47;;;;;;;6.80;2.95;;;;;;;8.11;100.00;93962.91;2105084;28;20035;-84
2023/10/08 01:09:51;;;;;;;8.85;2.95;;;;;;;8.11;100.00;93966.34;2096095;28;20035;-83
2023/10/08 01:11:00;;;;;;;10.13;3.47;;;;;;;8.10;100.00;93964.06;2099218;28;20043;-84
2023/10/08 01:12:26;;;;;;;5.75;2.97;;;;;;;8.12;100.00;93959.91;2098172;28;20215;-84
2023/10/08 01:13:35;;;;;;;7.28;2.75;;;;;;;8.13;100.00;93960.66;2104927;28;20063;-83
2023/10/08 01:14:36;;;;;;;6.80;3.13;;;;;;;8.08;100.00;93961.78;2098430;28;20409;-83
2023/10/08 01:15:37;;;;;;;8.60;2.88;;;;;;;8.07;100.00;93960.25;2088484;28;20029;-84
2023/10/08 01:16:41;;;;;;;6.43;2.97;;;;;;;7.96;100.00;93960.25;2104676;28;20031;-84
2023/10/08 01:17:57;;;;;;;6.70;3.15;;;;;;;7.88;100.00;93956.03;2101442;28;20035;-84
2023/10/08 01:19:00;;;;;;;6.10;2.55;;;;;;;7.89;100.00;93959.47;2092798;28;20111;-83
2023/10/08 01:20:19;;;;;;;9.32;3.28;;;;;;;7.87;100.00;93959.09;2105682;28;20695;-83
2023/10/08 01:21:39;;;;;;;8.48;2.92;;;;;;;7.76;100.00;93964.38;2113813;28;20443;-84
2023/10/08 01:22:40;;;;;;;8.82;3.22;;;;;;;7.81;100.00;93958.69;2113818;28;20623;-83
2023/10/08 01:23:42;;;;;;;8.48;2.53;;;;;;;7.82;100.00;93957.56;2122823;27;20019;-83
2023/10/08 01:24:47;;;;;;;5.32;2.58;;;;;;;7.90;100.00;93953.78;2113877;28;20024;-83
2023/10/08 01:25:55;;;;;;;8.23;2.88;;;;;;;7.92;100.00;93962.13;2105527;28;20099;-83
2023/10/08 01:26:57;;;;;;;7.82;2.60;;;;;;;7.97;100.00;93961.75;2117051;27;20019;-83
2023/10/08 01:28:01;;;;;;;8.60;3.30;;;;;;;7.94;100.00;93959.84;2115709;28;20028;-83
2023/10/08 01:29:07;;;;;;;9.13;3.17;;;;;;;7.92;100.00;93964.78;2097454;28;20062;-84
2023/10/08 01:30:17;;;;;;;6.32;3.00;;;;;;;7.71;100.00;93956.75;2102186;28;20087;-84
2023/10/08 01:31:18;;;;;;;8.27;2.75;;;;;;;7.70;100.00;93956.00;2120976;27;20048;-83
2023/10/08 01:32:22;;;;;;;8.55;3.70;;;;;;;7.69;100.00;93961.72;2111417;28;20028;-82
2023/10/08 01:33:27;;;;;;;5.57;2.78;;;;;;;7.69;100.00;93957.16;2096966;28;20481;-85
2023/10/08 01:34:35;;;;;;;9.63;2.92;;;;;;;7.78;100.00;93954.13;2098570;28;20483;-83
2023/10/08 01:35:36;;;;;;;6.60;3.40;;;;;;;7.88;100.00;93955.28;2119027;27;20102;-84
2023/10/08 01:36:37;;;;;;;6.20;2.70;;;;;;;7.89;100.00;93962.88;2114409;27;20015;-85
2023/10/08 01:37:40;;;;;;;8.65;2.63;;;;;;;7.94;100.00;93959.84;2122826;27;20023;-83
2023/10/08 01:38:41;;;;;;;7.93;3.22;;;;;;;7.86;100.00;93957.53;2113212;28;20019;-83
2023/10/08 01:39:46;;;;;;;6.90;2.47;;;;;;;7.90;100.00;93958.31;2109610;28;20406;-84
2023/10/08 01:40:50;;;;;;;6.47;2.58;;;;;;;7.74;100.00;93964.00;2103921;28;20063;-83
2023/10/08 01:41:51;;;;;;;7.07;2.63;;;;;;;7.89;100.00;93964.78;2095669;28;20036;-84
2023/10/08 01:42:53;;;;;;;7.75;2.88;;;;;;;7.88;100.00;93955.28;2113948;28;20042;-83
2023/10/08 01:43:54;;;;;;;6.32;2.50;;;;;;;7.79;100.00;93958.31;2100339;28;20468;-83
2023/10/08 01:44:55;;;;;;;9.25;2.88;;;;;;;7.79;100.00;93967.03;2103062;28;20038;-83
2023/10/08 01:45:56;;;;;;;11.75;3.30;;;;;;;7.88;100.00;93968.59;2113713;28;20065;-83
2023/10/08 01:46:58;;;;;;;10.68;2.83;;;;;;;7.78;100.00;93956.78;2110686;27;20019;-84
2023/10/08 01:47:59;;;;;;;5.47;2.55;;;;;;;7.65;100.00;93967.00;2102926;28;20020;-84
2023/10/08 01:49:04;;;;;;;7.43;2.60;;;;;;;7.60;100.00;93962.06;2098194;28;20035;-83
2023/10/08 01:50:18;;;;;;;9.75;2.92;;;;;;;7.52;100.00;93965.81;2098059;28;20032;-82
2023/10/08 01:51:37;;;;;;;10.73;2.75;;;;;;;7.54;100.00;93956.31;2114521;27;20146;-83
2023/10/08 01:52:40;;;;;;;3.80;2.38;;;;;;;7.73;100.00;93954.50;2117984;27;20076;-83
2023/10/08 01:53:41;;;;;;;10.25;2.53;;;;;;;7.69;100.00;93951.81;2106891;28;20031;-84
2023/10/08 01:54:42;;;;;;;5.68;2.53;;;;;;;7.76;100.00;93956.38;2100696;28;20465;-82
2023/10/08 01:55:49;;;;;;;8.60;2.90;;;;;;;7.69;100.00;93956.38;2127413;27;20035;-85
2023/10/08 01:56:57;;;;;;;8.30;2.55;;;;;;;7.72;100.00;93958.28;2113648;27;20030;-85
2023/10/08 01:57:58;;;;;;;7.32;3.05;;;;;;;7.75;100.00;93960.19;2114266;27;20477;-83
2023/10/08 01:59:00;;;;;;;8.57;2.95;;;;;;;7.63;100.00;93963.94;2104692;28;20024;-83
2023/10/08 02:00:01;;;;;;;6.93;2.50;;;;;;;7.65;100.00;93955.63;2106109;27;20058;-83
2023/10/08 02:01:05;;;;;;;5.57;2.40;;;;;;;7.72;100.00;93959.03;2113545;28;20131;-83
2023/10/08 02:02:06;;;;;;;8.63;2.75;;;;;;;7.71;100.00;93960.19;2102287;28;20077;-85
2023/10/08 02:03:09;;;;;;;9.45;2.80;;;;;;;7.80;100.00;93957.91;2108662;28;20023;-85
2023/10/08 02:04:12;;;;;;;7.70;2.90;;;;;;;7.85;100.00;93959.44;2104923;28;20032;-85
2023/10/08 02:05:18;;;;;;;7.93;2.55;;;;;;;7.93;100.00;93957.56;2096659;28;20016;-85
2023/10/08 02:06:20;;;;;;;7.88;2.75;;;;;;;7.79;100.00;93958.31;2090193;28;20059;-85
2023/10/08 02:07:22;;;;;;;5.95;2.35;;;;;;;7.84;100.00;93960.59;2105250;28;20023;-84
2023/10/08 02:08:23;;;;;;;6.75;2.75;;;;;;;7.77;100.00;93955.25;2109547;27;20032;-84
2023/10/08 02:09:26;;;;;;;11.13;3.72;;;;;;;7.77;100.00;93955.25;2121823;27;20048;-84
2023/10/08 02:10:28;;;;;;;8.85;2.08;;;;;;;7.86;100.00;93957.53;2103044;28;20350;-83
2023/10/08 02:11:43;;;;;;;7.15;2.95;;;;;;;7.77;100.00;93955.25;2096230;28;20037;-85
2023/10/08 02:12:45;;;;;;;10.38;2.80;;;;;;;7.64;100.00;93954.06;2098863;28;20035;-83
2023/10/08 02:13:46;;;;;;;4.70;2.38;;;;;;;7.48;100.00;93957.06;2104286;28;20097;-83
2023/10/08 02:14:48;;;;;;;6.70;2.17;;;;;;;7.65;100.00;93951.06;2109201;28;20083;-83
2023/10/08 02:15:51;;;;;;;8.43;3.03;;;;;;;7.69;100.00;93956.38;2108668;28;20091;-84
2023/10/08 02:16:56;;;;;;;9.95;3.20;;;;;;;7.78;100.00;93951.47;2105652;28;20562;-84
2023/10/08 02:17:58;;;;;;;6.43;2.50;;;;;;;7.63;100.00;93944.56;2103496;28;20058;-84
2023/10/08 02:18:59;;;;;;;7.93;2.90;;;;;;;7.62;100.00;93943.06;2111184;28;20137;-85
2023/10/08 02:20:04;;;;;;;11.00;2.90;;;;;;;7.65;100.00;93950.28;2113622;28;20034;-84
2023/10/08 02:21:05;;;;;;;12.18;2.88;;;;;;;7.82;100.00;93955.66;2094027;28;20024;-84
2023/10/08 02:23:29;;;;;;;;;;;;;;;7.43;100.00;93957.44;2137750;27;20646;-83
2023/10/08 02:24:30;;;;;;;11.35;2.65;;;;;;;7.53;100.00;93962.03;2131245;27;19915;-83
2023/10/08 02:25:34;;;;;;;9.48;2.85;;;;;;;7.53;100.00;93949.47;2120492;27;20022;-84
2023/10/08 02:26:35;;;;;;;11.25;2.63;;;;;;;7.55;100.00;93943.78;2112102;28;20118;-84
2023/10/08 02:27:37;;;;;;;7.78;2.88;;;;;;;7.43;100.00;93946.81;2120551;27;20034;-85
2023/10/08 02:28:38;;;;;;;9.73;2.70;;;;;;;7.57;100.00;93946.84;2129809;27;20034;-84
2023/10/08 02:29:39;;;;;;;6.15;2.60;;;;;;;7.55;100.00;93946.44;2130057;27;20014;-85
2023/10/08 02:30:41;;;;;;;9.85;3.22;;;;;;;7.66;100.00;93949.16;2129071;27;20063;-83
2023/10/08 02:31:43;;;;;;;7.93;2.92;;;;;;;7.64;100.00;93951.41;2120862;27;20019;-83
2023/10/08 02:32:46;;;;;;;7.93;3.13;;;;;;;7.60;100.00;93951.41;2120744;28;20084;-83
2023/10/08 02:33:47;;;;;;;10.30;3.10;;;;;;;7.73;100.00;93947.28;2103696;28;20039;-83
2023/10/08 02:34:50;;;;;;;7.80;3.05;;;;;;;7.71;100.00;93951.44;2109207;27;20023;-84
2023/10/08 02:35:51;;;;;;;9.10;3.28;;;;;;;7.73;100.00;93947.28;2119316;27;20433;-83
2023/10/08 02:36:52;;;;;;;11.55;3.70;;;;;;;7.75;100.00;93950.31;2121857;27;20031;-84
2023/10/08 02:37:54;;;;;;;10.57;3.28;;;;;;;7.70;100.00;93953.34;2112306;28;20089;-84
2023/10/08 02:38:55;;;;;;;9.00;3.38;;;;;;;7.46;100.00;93956.66;2112439;27;20016;-83
2023/10/08 02:39:57;;;;;;;8.32;2.70;;;;;;;7.45;100.00;93955.91;2112450;28;20485;-83
2023/10/08 02:40:59;;;;;;;7.32;2.88;;;;;;;7.52;100.00;93952.53;2112335;27;20039;-84
2023/10/08 02:42:10;;;;;;;10.90;2.97;;;;;;;7.52;100.00;93944.56;2111850;28;22883;-84
2023/10/08 02:43:11;;;;;;;8.38;3.10;;;;;;;7.61;100.00;93952.94;2112301;28;20489;-83
2023/10/08 02:44:13;;;;;;;9.40;3.03;;;;;;;7.69;100.00;93948.41;2117325;27;20099;-84
2023/10/08 02:45:16;;;;;;;12.32;3.50;;;;;;;7.73;100.00;93955.25;2111914;28;20065;-84
2023/10/08 02:46:18;;;;;;;9.73;3.20;;;;;;;7.64;100.00;93956.72;2112578;28;20808;-83
2023/10/08 02:47:20;;;;;;;10.30;3.42;;;;;;;7.69;100.00;93946.50;2117519;27;20450;-84
2023/10/08 02:48:23;;;;;;;8.75;2.85;;;;;;;7.62;100.00;93949.13;2112175;28;20035;-84
2023/10/08 02:49:24;;;;;;;9.93;2.92;;;;;;;7.69;100.00;93949.16;2117988;27;20027;-84
2023/10/08 02:50:27;;;;;;;10.60;2.90;;;;;;;7.73;100.00;93949.19;2119840;27;20019;-84
2023/10/08 02:51:28;;;;;;;9.52;2.97;;;;;;;7.67;100.00;93950.66;2125870;27;20491;-83
2023/10/08 02:52:29;;;;;;;10.05;3.28;;;;;;;7.71;100.00;93948.78;2122292;27;20027;-83
2023/10/08 02:53:30;;;;;;;12.80;3.58;;;;;;;7.68;100.00;93952.19;2128425;27;20019;-84
2023/10/08 02:54:31;;;;;;;11.82;3.25;;;;;;;7.60;100.00;93950.66;2120737;28;20027;-83
2023/10/08 02:55:35;;;;;;;6.22;2.97;;;;;;;7.54;100.00;93953.66;2103260;28;20020;-84
2023/10/08 02:56:36;;;;;;;11.95;3.72;;;;;;;7.61;100.00;93954.84;2113087;27;20126;-83
2023/10/08 02:57:37;;;;;;;10.38;3.17;;;;;;;7.66;100.00;93954.47;2120199;27;20035;-83
2023/10/08 02:58:43;;;;;;;7.93;3.17;;;;;;;7.46;100.00;93952.13;2129430;27;20027;-84
2023/10/08 02:59:45;;;;;;;8.32;2.72;;;;;;;7.50;100.00;93952.13;2121192;27;20024;-83
2023/10/08 03:00:47;;;;;;;10.75;3.53;;;;;;;7.47;100.00;93951.00;2111847;27;20023;-83
2023/10/08 03:01:55;;;;;;;7.32;2.92;;;;;;;7.44;100.00;93959.72;2120922;27;20019;-84
2023/10/08 03:02:58;;;;;;;12.15;2.80;;;;;;;7.64;100.00;93954.84;2111050;28;20409;-84
2023/10/08 03:04:04;;;;;;;11.30;3.85;;;;;;;7.63;100.00;93952.56;2120342;27;20030;-82
2023/10/08 03:05:08;;;;;;;9.18;3.35;;;;;;;7.65;100.00;93947.63;2120599;28;20023;-84
2023/10/08 03:06:14;;;;;;;7.95;2.85;;;;;;;7.72;100.00;93951.06;2120497;27;20499;-84
2023/10/08 03:07:22;;;;;;;10.40;2.85;;;;;;;7.70;100.00;93950.69;2120242;27;20023;-83
2023/10/08 03:08:23;;;;;;;10.50;2.90;;;;;;;7.71;100.00;93954.09;2110341;28;20535;-83
2023/10/08 03:09:26;;;;;;;9.90;2.80;;;;;;;7.70;100.00;93950.69;2103115;28;20032;-84
2023/10/08 03:10:33;;;;;;;10.30;2.83;;;;;;;7.68;100.00;93947.66;2120470;27;20482;-85
2023/10/08 03:11:37;;;;;;;9.07;2.92;;;;;;;7.69;100.00;93943.09;2129790;27;20499;-83
2023/10/08 03:12:40;;;;;;;7.18;2.70;;;;;;;7.78;100.00;93948.81;2128843;27;20019;-84
2023/10/08 03:13:42;;;;;;;12.48;3.40;;;;;;;7.71;100.00;93946.13;2120412;27;20047;-83
2023/10/08 03:15:01;;;;;;;11.95;3.00;;;;;;;7.72;100.00;93942.31;2112349;28;20039;-83
2023/10/08 03:17:07;;;;;;;5.75;2.95;;;;;;;7.74;100.00;93938.16;2125810;27;20059;-84
2023/10/08 03:18:10;;;;;;;9.68;2.78;;;;;;;7.71;100.00;93943.44;2125367;27;20207;-83
2023/10/08 03:19:11;;;;;;;10.40;2.97;;;;;;;7.66;100.00;93941.91;2119544;28;20019;-85
2023/10/08 03:22:38;;;;;;;12.23;2.85;;;;;;;7.54;100.00;93940.34;2125646;27;20057;-83
2023/10/08 03:23:45;;;;;;;12.32;3.38;;;;;;;7.57;100.00;93939.63;2112068;28;20023;-83
2023/10/08 03:24:48;;;;;;;11.25;2.83;;;;;;;7.65;100.00;93942.31;2112014;28;20062;-84
2023/10/08 03:27:20;;;;;;;10.32;2.95;;;;;;;7.60;100.00;93937.34;2120140;27;20149;-84
2023/10/08 03:28:24;;;;;;;10.45;3.40;;;;;;;7.55;100.00;93939.25;2115414;28;20035;-84
2023/10/08 03:29:30;;;;;;;16.15;3.40;;;;;;;7.48;100.00;93941.88;2119970;27;20235;-85
2023/10/08 03:30:31;;;;;;;8.57;2.80;;;;;;;7.53;100.00;93941.50;2118461;28;20042;-83
2023/10/08 03:32:55;;;;;;;9.98;2.90;;;;;;;7.51;100.00;93937.72;2106687;27;20031;-84
2023/10/08 03:33:56;;;;;;;11.48;3.03;;;;;;;7.53;100.00;93938.09;2127264;27;20058;-82
2023/10/08 03:34:59;;;;;;;9.40;2.70;;;;;;;7.47;100.00;93935.03;2111877;28;20617;-83
2023/10/08 03:36:34;;;;;;;10.95;3.00;;;;;;;7.48;100.00;93936.56;2110316;28;20058;-84
2023/10/08 03:37:40;;;;;;;14.48;2.95;;;;;;;7.44;100.00;93940.34;2108827;28;20733;-83
2023/10/08 03:38:44;;;;;;;6.90;2.42;;;;;;;7.52;100.00;93936.56;2108520;28;20177;-81
2023/10/08 03:40:00;;;;;;;10.65;2.67;;;;;;;7.38;100.00;93939.19;2103473;28;20024;-82
2023/10/08 03:41:06;;;;;;;9.55;2.50;;;;;;;7.42;100.00;93931.97;2101843;28;20453;-85
2023/10/08 03:42:09;;;;;;;7.53;2.70;;;;;;;7.34;100.00;93939.16;2091416;28;20057;-83
2023/10/08 03:43:19;;;;;;;9.48;2.72;;;;;;;7.16;100.00;93933.78;2102130;28;20421;-83
2023/10/08 03:44:20;;;;;;;;;;;;;;;7.17;100.00;93935.28;2112624;28;20084;-83
2023/10/08 03:46:42;;;;;;;10.27;2.60;;;;;;;7.22;100.00;93937.59;2114439;28;20031;-83
2023/10/08 03:47:46;;;;;;;10.27;2.60;;;;;;;7.22;100.00;93932.28;2110164;28;20027;-84
2023/10/08 03:48:57;;;;;;;10.75;3.17;;;;;;;7.13;100.00;93939.84;2111565;27;20054;-84
2023/10/08 03:50:05;;;;;;;8.20;2.35;;;;;;;7.10;100.00;93939.81;2104474;28;20028;-83
2023/10/08 03:51:06;;;;;;;17.95;3.05;;;;;;;7.16;100.00;93939.09;2101165;28;20185;-85
2023/10/08 03:52:07;;;;;;;10.60;2.75;;;;;;;7.22;100.00;93934.94;2109688;28;20483;-83
2023/10/08 03:53:12;;;;;;;9.60;2.45;;;;;;;7.14;100.00;93937.94;2102920;28;20016;-84
2023/10/08 03:54:16;;;;;;;11.45;2.40;;;;;;;7.15;100.00;93931.47;2107968;28;20072;-83
2023/10/08 03:55:27;;;;;;;11.98;2.95;;;;;;;7.13;100.00;93937.19;2103109;28;20024;-83
2023/10/08 03:56:31;;;;;;;10.55;2.45;;;;;;;7.20;100.00;93934.56;2098458;28;20021;-83
2023/10/08 03:57:41;;;;;;;8.18;2.40;;;;;;;7.23;100.00;93938.34;2112211;28;20149;-84
2023/10/08 03:58:46;;;;;;;18.88;3.72;;;;;;;7.22;100.00;93928.84;2105955;28;20110;-85
2023/10/08 03:59:48;;;;;;;8.35;2.80;;;;;;;7.08;100.00;93924.25;2104321;27;20361;-85
2023/10/08 04:00:49;;;;;;;12.75;3.20;;;;;;;7.15;100.00;93926.91;2113615;27;20361;-84
2023/10/08 04:01:54;;;;;;;9.88;2.78;;;;;;;7.11;100.00;93928.03;2105114;28;20042;-82
2023/10/08 04:03:00;;;;;;;10.57;2.92;;;;;;;7.11;100.00;93926.13;2108361;28;20024;-85
2023/10/08 04:04:01;;;;;;;13.55;2.70;;;;;;;7.10;100.00;93926.53;2117306;27;20260;-83
2023/10/08 04:05:17;;;;;;;13.73;3.10;;;;;;;7.13;100.00;93923.13;2102387;28;20028;-84
2023/10/08 04:06:28;;;;;;;10.93;2.95;;;;;;;7.07;100.00;93928.03;2102055;28;20025;-84
2023/10/08 04:08:42;;;;;;;15.38;3.50;;;;;;;6.90;100.00;93918.84;2105851;27;20020;-83
2023/10/08 04:09:43;;;;;;;9.38;2.92;;;;;;;6.97;100.00;93921.53;2098619;28;20035;-84
2023/10/08 04:12:52;;;;;;;14.38;3.47;;;;;;;6.81;100.00;93931.69;2106330;28;20080;-83
2023/10/08 04:13:53;;;;;;;11.25;2.97;;;;;;;6.84;100.00;93917.66;2099443;28;20021;-83
2023/10/08 04:14:55;;;;;;;9.32;3.42;;;;;;;6.89;100.00;93924.50;2097240;28;20036;-83
2023/10/08 04:15:57;;;;;;;12.07;3.35;;;;;;;6.80;100.00;93920.31;2099319;28;20085;-84
2023/10/08 04:16:58;;;;;;;13.25;3.33;;;;;;;6.87;100.00;93921.47;2106182;28;20027;-84
2023/10/08 04:18:02;;;;;;;6.85;3.28;;;;;;;6.89;100.00;93919.19;2110093;28;20020;-84
2023/10/08 04:19:04;;;;;;;12.25;3.08;;;;;;;6.88;100.00;93912.38;2106422;28;20051;-84
2023/10/08 04:20:30;;;;;;;10.45;3.28;;;;;;;6.82;100.00;93914.63;2109216;28;20492;-83
2023/10/08 04:21:31;;;;;;;12.05;2.97;;;;;;;6.90;100.00;93910.88;2117282;27;20053;-83
2023/10/08 04:22:32;;;;;;;9.30;3.20;;;;;;;6.89;100.00;93909.34;2113977;27;20028;-82
2023/10/08 04:23:38;;;;;;;7.65;2.95;;;;;;;6.82;100.00;93909.31;2114528;28;20035;-84
2023/10/08 04:24:43;;;;;;;10.95;3.53;;;;;;;6.81;100.00;93907.78;2109712;28;20028;-84
2023/10/08 04:25:44;;;;;;;8.88;3.20;;;;;;;6.76;100.00;93900.94;2099051;28;20333;-84
2023/10/08 04:26:45;;;;;;;12.13;4.15;;;;;;;6.78;100.00;93903.22;2104550;28;20024;-84
2023/10/08 04:27:49;;;;;;;10.00;3.28;;;;;;;6.84;100.00;93906.28;2097063;28;20048;-84
2023/10/08 04:28:57;;;;;;;7.40;3.63;;;;;;;6.95;100.00;93902.53;2099080;28;20020;-84
2023/10/08 04:29:58;;;;;;;13.32;3.47;;;;;;;6.94;100.00;93900.25;2120350;27;20122;-84
2023/10/08 04:31:00;;;;;;;12.88;3.55;;;;;;;6.96;100.00;93900.63;2111412;28;20059;-83
2023/10/08 04:32:07;;;;;;;10.68;3.72;;;;;;;6.74;100.00;93897.88;2108787;27;20574;-82
2023/10/08 04:33:12;;;;;;;9.05;3.40;;;;;;;6.68;100.00;93896.72;2118654;27;20566;-84
2023/10/08 04:34:16;;;;;;;11.68;3.78;;;;;;;6.92;100.00;93905.16;2111442;28;20023;-83
2023/10/08 04:35:17;;;;;;;9.30;3.75;;;;;;;6.96;100.00;93897.97;2113626;28;20060;-84
2023/10/08 04:36:19;;;;;;;12.45;3.22;;;;;;;6.97;100.00;93897.59;2106877;28;20027;-84
2023/10/08 04:37:21;;;;;;;12.25;3.53;;;;;;;6.95;100.00;93899.13;2118053;27;20019;-82
2023/10/08 04:38:26;;;;;;;9.80;3.40;;;;;;;6.98;100.00;93904.47;2114389;28;20023;-85
2023/10/08 04:39:33;;;;;;;11.88;3.45;;;;;;;6.86;100.00;93896.03;2112423;28;20027;-85
2023/10/08 04:40:42;;;;;;;9.45;3.75;;;;;;;6.85;100.00;93903.25;2107814;28;20107;-84
2023/10/08 04:41:43;;;;;;;14.63;3.67;;;;;;;6.84;100.00;93899.06;2118034;27;20030;-84
2023/10/08 04:42:48;;;;;;;11.82;3.55;;;;;;;6.85;100.00;93902.47;2122006;27;20027;-84
2023/10/08 04:43:49;;;;;;;12.75;3.35;;;;;;;6.70;100.00;93905.06;2116360;27;20030;-84
2023/10/08 04:44:52;;;;;;;11.65;3.70;;;;;;;6.68;100.00;93903.91;2105931;28;20441;-84
2023/10/08 04:46:05;;;;;;;12.18;4.00;;;;;;;6.70;100.00;93899.00;2103650;28;20091;-83
2023/10/08 04:47:31;;;;;;;15.00;3.70;;;;;;;6.86;100.00;93902.13;2107011;28;20707;-82
2023/10/08 04:48:36;;;;;;;12.90;3.30;;;;;;;6.96;100.00;93898.75;2118086;27;20077;-84
2023/10/08 04:49:45;;;;;;;10.75;3.17;;;;;;;6.86;100.00;93896.81;2106397;28;20119;-83
2023/10/08 04:50:58;;;;;;;12.77;3.28;;;;;;;6.70;100.00;93897.09;2099077;28;20047;-84
2023/10/08 04:52:18;;;;;;;15.13;4.15;;;;;;;6.72;100.00;93894.84;2107233;28;20031;-83
2023/10/08 04:53:28;;;;;;;11.07;4.00;;;;;;;6.72;100.00;93897.50;2113618;27;20011;-85
2023/10/08 04:54:29;;;;;;;9.15;2.72;;;;;;;6.71;100.00;93900.50;2113473;27;20503;-82
2023/10/08 04:55:31;;;;;;;14.27;3.60;;;;;;;6.64;100.00;93897.81;2118119;27;20027;-83
2023/10/08 04:56:33;;;;;;;9.85;3.47;;;;;;;6.60;100.00;93907.66;2118318;27;20033;-83
2023/10/08 04:57:34;;;;;;;14.05;3.65;;;;;;;6.62;100.00;93900.84;2110394;28;20115;-84
2023/10/08 04:58:40;;;;;;;16.02;3.85;;;;;;;6.60;100.00;93895.13;2104484;28;20473;-83
2023/10/08 04:59:43;;;;;;;11.73;3.80;;;;;;;6.62;100.00;93897.41;2105706;28;20039;-83
2023/10/08 05:00:53;;;;;;;8.85;3.40;;;;;;;6.57;100.00;93909.91;2101396;28;20035;-84
2023/10/08 05:02:19;;;;;;;10.68;3.63;;;;;;;6.45;100.00;93902.28;2094640;28;20454;-84
2023/10/08 05:03:22;;;;;;;11.88;3.70;;;;;;;6.74;100.00;93908.50;2115532;27;20019;-83
2023/10/08 05:04:23;;;;;;;12.38;4.38;;;;;;;6.72;100.00;93908.13;2113582;28;20034;-86
2023/10/08 05:05:38;;;;;;;12.63;3.47;;;;;;;6.81;100.00;93899.81;2100538;28;20016;-84
2023/10/08 05:08:58;;;;;;;14.18;3.35;;;;;;;6.47;100.00;93905.31;2117396;27;20420;-83
2023/10/08 05:11:24;;;;;;;22.60;4.32;;;;;;;6.48;100.00;93906.81;2112385;27;20023;-84
2023/10/08 05:12:34;;;;;;;12.77;3.67;;;;;;;6.68;100.00;93899.38;2113512;27;20059;-84
2023/10/08 05:13:45;;;;;;;12.60;3.45;;;;;;;6.56;100.00;93903.09;2106372;28;20067;-85
2023/10/08 05:14:56;;;;;;;8.60;3.03;;;;;;;6.62;100.00;93908.03;2108220;27;20357;-84
2023/10/08 05:16:11;;;;;;;14.18;3.42;;;;;;;6.55;100.00;93906.88;2114767;27;20031;-83
2023/10/08 05:18:23;;;;;;;10.95;3.33;;;;;;;6.52;100.00;93909.50;2102972;27;20469;-85
2023/10/08 05:22:01;;;;;;;9.20;3.60;;;;;;;6.38;100.00;93910.19;2115980;27;20027;-84
2023/10/08 05:24:37;;;;;;;12.73;3.75;;;;;;;6.52;100.00;93906.84;2116193;27;20072;-82
2023/10/08 05:25:57;;;;;;;8.65;2.97;;;;;;;6.46;100.00;93903.78;2115677;27;20094;-85